sensor_id;sensor_type;location;lat;lon;timestamp;P1;durP1;ratioP1;P2;durP2;ratioP2
30948;SDS011;17637;51.984;21.208;2023-07-29T00:01:09;6.75;;;6.15;;
30948;SDS011;17637;51.984;21.208;2023-07-29T00:03:41;8.38;;;6.57;;
30948;SDS011;17637;51.984;21.208;2023-07-29T00:06:13;6.30;;;5.70;;
30948;SDS011;17637;51.984;21.208;2023-07-29T00:08:45;5.60;;;5.10;;
30948;SDS011;17637;51.984;21.208;2023-07-29T00:11:17;8.98;;;7.05;;
30948;SDS011;17637;51.984;21.208;2023-07-29T00:13:49;10.82;;;7.15;;
30948;SDS011;17637;51.984;21.208;2023-07-29T00:16:22;6.93;;;6.22;;
30948;SDS011;17637;51.984;21.208;2023-07-29T00:18:54;6.63;;;5.95;;
30948;SDS011;17637;51.984;21.208;2023-07-29T00:21:26;10.02;;;6.38;;
30948;SDS011;17637;51.984;21.208;2023-07-29T00:23:57;5.38;;;4.93;;
30948;SDS011;17637;51.984;21.208;2023-07-29T00:26:30;11.02;;;7.57;;
30948;SDS011;17637;51.984;21.208;2023-07-29T00:29:01;9.60;;;8.32;;
30948;SDS011;17637;51.984;21.208;2023-07-29T00:31:33;7.55;;;6.85;;
30948;SDS011;17637;51.984;21.208;2023-07-29T00:34:05;8.55;;;7.38;;
30948;SDS011;17637;51.984;21.208;2023-07-29T00:36:37;10.35;;;8.45;;
30948;SDS011;17637;51.984;21.208;2023-07-29T00:39:09;8.73;;;6.30;;
30948;SDS011;17637;51.984;21.208;2023-07-29T00:41:41;8.98;;;6.70;;
30948;SDS011;17637;51.984;21.208;2023-07-29T00:44:13;8.43;;;7.05;;
30948;SDS011;17637;51.984;21.208;2023-07-29T00:46:45;7.50;;;6.80;;
30948;SDS011;17637;51.984;21.208;2023-07-29T00:49:19;8.75;;;7.97;;
30948;SDS011;17637;51.984;21.208;2023-07-29T00:51:52;7.40;;;6.20;;
30948;SDS011;17637;51.984;21.208;2023-07-29T00:54:23;6.10;;;5.50;;
30948;SDS011;17637;51.984;21.208;2023-07-29T00:56:55;8.70;;;6.00;;
30948;SDS011;17637;51.984;21.208;2023-07-29T00:59:27;8.05;;;6.82;;
30948;SDS011;17637;51.984;21.208;2023-07-29T01:02:02;13.55;;;9.07;;
30948;SDS011;17637;51.984;21.208;2023-07-29T01:04:34;7.40;;;6.65;;
30948;SDS011;17637;51.984;21.208;2023-07-29T01:13:05;10.57;;;8.57;;
30948;SDS011;17637;51.984;21.208;2023-07-29T01:18:18;7.28;;;6.20;;
30948;SDS011;17637;51.984;21.208;2023-07-29T01:20:55;9.80;;;8.00;;
30948;SDS011;17637;51.984;21.208;2023-07-29T01:23:34;6.88;;;6.07;;
30948;SDS011;17637;51.984;21.208;2023-07-29T01:26:07;9.23;;;8.07;;
30948;SDS011;17637;51.984;21.208;2023-07-29T01:28:39;8.15;;;7.35;;
30948;SDS011;17637;51.984;21.208;2023-07-29T01:31:16;7.03;;;6.32;;
30948;SDS011;17637;51.984;21.208;2023-07-29T01:34:07;7.00;;;6.05;;
30948;SDS011;17637;51.984;21.208;2023-07-29T01:36:44;11.25;;;7.60;;
30948;SDS011;17637;51.984;21.208;2023-07-29T01:39:18;7.40;;;5.75;;
30948;SDS011;17637;51.984;21.208;2023-07-29T01:41:53;8.98;;;6.90;;
30948;SDS011;17637;51.984;21.208;2023-07-29T01:44:25;7.10;;;6.25;;
30948;SDS011;17637;51.984;21.208;2023-07-29T01:46:59;7.85;;;6.28;;
30948;SDS011;17637;51.984;21.208;2023-07-29T01:49:31;5.60;;;5.10;;
30948;SDS011;17637;51.984;21.208;2023-07-29T01:52:03;7.22;;;6.35;;
30948;SDS011;17637;51.984;21.208;2023-07-29T01:54:35;12.13;;;8.77;;
30948;SDS011;17637;51.984;21.208;2023-07-29T01:57:07;9.95;;;8.32;;
30948;SDS011;17637;51.984;21.208;2023-07-29T01:59:39;10.30;;;8.30;;
30948;SDS011;17637;51.984;21.208;2023-07-29T02:02:12;8.77;;;7.85;;
30948;SDS011;17637;51.984;21.208;2023-07-29T02:04:43;12.50;;;9.52;;
30948;SDS011;17637;51.984;21.208;2023-07-29T02:07:17;17.25;;;9.85;;
30948;SDS011;17637;51.984;21.208;2023-07-29T02:09:50;12.43;;;11.07;;
30948;SDS011;17637;51.984;21.208;2023-07-29T02:12:22;41.78;;;34.03;;
30948;SDS011;17637;51.984;21.208;2023-07-29T02:14:54;48.47;;;42.85;;
30948;SDS011;17637;51.984;21.208;2023-07-29T02:17:25;70.72;;;59.58;;
30948;SDS011;17637;51.984;21.208;2023-07-29T02:19:57;41.08;;;36.13;;
30948;SDS011;17637;51.984;21.208;2023-07-29T02:22:29;46.28;;;39.45;;
30948;SDS011;17637;51.984;21.208;2023-07-29T02:25:01;31.05;;;26.35;;
30948;SDS011;17637;51.984;21.208;2023-07-29T02:27:34;22.90;;;20.52;;
30948;SDS011;17637;51.984;21.208;2023-07-29T02:30:06;30.20;;;21.08;;
30948;SDS011;17637;51.984;21.208;2023-07-29T02:32:38;22.70;;;19.38;;
30948;SDS011;17637;51.984;21.208;2023-07-29T02:35:11;15.25;;;13.65;;
30948;SDS011;17637;51.984;21.208;2023-07-29T02:37:43;20.33;;;17.02;;
30948;SDS011;17637;51.984;21.208;2023-07-29T02:40:15;20.75;;;18.10;;
30948;SDS011;17637;51.984;21.208;2023-07-29T02:42:47;27.00;;;20.45;;
30948;SDS011;17637;51.984;21.208;2023-07-29T02:45:18;24.23;;;20.90;;
30948;SDS011;17637;51.984;21.208;2023-07-29T02:47:50;22.20;;;18.77;;
30948;SDS011;17637;51.984;21.208;2023-07-29T02:50:22;30.10;;;24.02;;
30948;SDS011;17637;51.984;21.208;2023-07-29T02:52:54;31.23;;;24.58;;
30948;SDS011;17637;51.984;21.208;2023-07-29T02:55:26;24.50;;;20.23;;
30948;SDS011;17637;51.984;21.208;2023-07-29T02:57:58;20.52;;;18.25;;
30948;SDS011;17637;51.984;21.208;2023-07-29T03:00:31;28.17;;;21.67;;
30948;SDS011;17637;51.984;21.208;2023-07-29T03:03:03;23.92;;;19.42;;
30948;SDS011;17637;51.984;21.208;2023-07-29T03:05:35;26.45;;;21.83;;
30948;SDS011;17637;51.984;21.208;2023-07-29T03:08:07;21.83;;;17.90;;
30948;SDS011;17637;51.984;21.208;2023-07-29T03:10:39;18.30;;;16.45;;
30948;SDS011;17637;51.984;21.208;2023-07-29T03:13:11;25.02;;;19.75;;
30948;SDS011;17637;51.984;21.208;2023-07-29T03:15:43;43.22;;;26.23;;
30948;SDS011;17637;51.984;21.208;2023-07-29T03:18:15;39.95;;;26.80;;
30948;SDS011;17637;51.984;21.208;2023-07-29T03:20:48;37.47;;;24.83;;
30948;SDS011;17637;51.984;21.208;2023-07-29T03:23:20;30.52;;;21.95;;
30948;SDS011;17637;51.984;21.208;2023-07-29T03:25:54;23.55;;;19.75;;
30948;SDS011;17637;51.984;21.208;2023-07-29T03:28:29;26.95;;;21.75;;
30948;SDS011;17637;51.984;21.208;2023-07-29T03:31:04;36.42;;;26.33;;
30948;SDS011;17637;51.984;21.208;2023-07-29T03:33:36;46.53;;;28.33;;
30948;SDS011;17637;51.984;21.208;2023-07-29T03:36:08;39.30;;;27.52;;
30948;SDS011;17637;51.984;21.208;2023-07-29T03:38:40;27.17;;;22.67;;
30948;SDS011;17637;51.984;21.208;2023-07-29T03:41:12;45.33;;;28.08;;
30948;SDS011;17637;51.984;21.208;2023-07-29T03:43:44;37.13;;;26.30;;
30948;SDS011;17637;51.984;21.208;2023-07-29T03:46:16;38.83;;;27.30;;
30948;SDS011;17637;51.984;21.208;2023-07-29T03:48:51;43.92;;;32.55;;
30948;SDS011;17637;51.984;21.208;2023-07-29T03:51:23;39.45;;;28.77;;
30948;SDS011;17637;51.984;21.208;2023-07-29T03:53:56;36.88;;;27.10;;
30948;SDS011;17637;51.984;21.208;2023-07-29T03:56:27;24.27;;;21.55;;
30948;SDS011;17637;51.984;21.208;2023-07-29T03:59:03;29.63;;;21.05;;
30948;SDS011;17637;51.984;21.208;2023-07-29T04:01:36;26.30;;;23.13;;
30948;SDS011;17637;51.984;21.208;2023-07-29T04:04:08;34.03;;;27.17;;
30948;SDS011;17637;51.984;21.208;2023-07-29T04:06:40;25.70;;;22.20;;
30948;SDS011;17637;51.984;21.208;2023-07-29T04:09:12;27.67;;;21.85;;
30948;SDS011;17637;51.984;21.208;2023-07-29T04:11:44;32.85;;;25.30;;
30948;SDS011;17637;51.984;21.208;2023-07-29T04:14:16;31.30;;;24.50;;
30948;SDS011;17637;51.984;21.208;2023-07-29T04:16:48;20.27;;;18.13;;
30948;SDS011;17637;51.984;21.208;2023-07-29T04:19:20;23.30;;;20.70;;
30948;SDS011;17637;51.984;21.208;2023-07-29T04:21:52;20.88;;;18.67;;
30948;SDS011;17637;51.984;21.208;2023-07-29T04:24:24;27.02;;;22.98;;
30948;SDS011;17637;51.984;21.208;2023-07-29T04:26:56;20.70;;;18.60;;
30948;SDS011;17637;51.984;21.208;2023-07-29T04:29:28;22.67;;;20.33;;
30948;SDS011;17637;51.984;21.208;2023-07-29T04:32:00;24.85;;;21.55;;
30948;SDS011;17637;51.984;21.208;2023-07-29T04:34:33;23.42;;;21.05;;
30948;SDS011;17637;51.984;21.208;2023-07-29T04:37:05;17.98;;;16.27;;
30948;SDS011;17637;51.984;21.208;2023-07-29T04:39:36;22.17;;;20.08;;
30948;SDS011;17637;51.984;21.208;2023-07-29T04:42:08;23.08;;;20.73;;
30948;SDS011;17637;51.984;21.208;2023-07-29T04:44:40;24.08;;;21.63;;
30948;SDS011;17637;51.984;21.208;2023-07-29T04:47:13;18.85;;;17.02;;
30948;SDS011;17637;51.984;21.208;2023-07-29T04:49:46;23.92;;;21.52;;
30948;SDS011;17637;51.984;21.208;2023-07-29T04:52:18;24.63;;;22.05;;
30948;SDS011;17637;51.984;21.208;2023-07-29T04:54:51;20.00;;;18.20;;
30948;SDS011;17637;51.984;21.208;2023-07-29T04:57:22;21.08;;;19.05;;
30948;SDS011;17637;51.984;21.208;2023-07-29T04:59:54;16.15;;;14.65;;
30948;SDS011;17637;51.984;21.208;2023-07-29T05:02:26;18.80;;;17.00;;
30948;SDS011;17637;51.984;21.208;2023-07-29T05:04:58;17.50;;;15.90;;
30948;SDS011;17637;51.984;21.208;2023-07-29T05:07:30;19.27;;;17.48;;
30948;SDS011;17637;51.984;21.208;2023-07-29T05:10:01;17.08;;;15.45;;
30948;SDS011;17637;51.984;21.208;2023-07-29T05:12:34;14.93;;;13.43;;
30948;SDS011;17637;51.984;21.208;2023-07-29T05:15:06;17.25;;;15.60;;
30948;SDS011;17637;51.984;21.208;2023-07-29T05:17:38;14.35;;;13.10;;
30948;SDS011;17637;51.984;21.208;2023-07-29T05:20:10;17.45;;;15.75;;
30948;SDS011;17637;51.984;21.208;2023-07-29T05:22:43;16.90;;;15.23;;
30948;SDS011;17637;51.984;21.208;2023-07-29T05:25:14;14.82;;;13.52;;
30948;SDS011;17637;51.984;21.208;2023-07-29T05:27:46;15.10;;;13.80;;
30948;SDS011;17637;51.984;21.208;2023-07-29T05:30:18;13.98;;;12.68;;
30948;SDS011;17637;51.984;21.208;2023-07-29T05:32:50;16.63;;;14.90;;
30948;SDS011;17637;51.984;21.208;2023-07-29T05:35:22;14.18;;;12.93;;
30948;SDS011;17637;51.984;21.208;2023-07-29T05:37:54;17.83;;;16.23;;
30948;SDS011;17637;51.984;21.208;2023-07-29T05:40:25;13.98;;;12.63;;
30948;SDS011;17637;51.984;21.208;2023-07-29T05:42:57;14.18;;;12.68;;
30948;SDS011;17637;51.984;21.208;2023-07-29T05:45:29;16.52;;;14.93;;
30948;SDS011;17637;51.984;21.208;2023-07-29T05:48:02;16.13;;;14.40;;
30948;SDS011;17637;51.984;21.208;2023-07-29T05:50:34;11.90;;;10.82;;
30948;SDS011;17637;51.984;21.208;2023-07-29T05:53:06;10.93;;;9.82;;
30948;SDS011;17637;51.984;21.208;2023-07-29T05:55:38;12.02;;;10.98;;
30948;SDS011;17637;51.984;21.208;2023-07-29T05:58:10;12.50;;;11.32;;
30948;SDS011;17637;51.984;21.208;2023-07-29T06:00:42;12.88;;;11.68;;
30948;SDS011;17637;51.984;21.208;2023-07-29T06:03:14;14.57;;;13.05;;
30948;SDS011;17637;51.984;21.208;2023-07-29T06:05:46;15.75;;;14.25;;
30948;SDS011;17637;51.984;21.208;2023-07-29T06:08:18;14.88;;;13.52;;
30948;SDS011;17637;51.984;21.208;2023-07-29T06:10:50;15.68;;;14.38;;
30948;SDS011;17637;51.984;21.208;2023-07-29T06:13:21;14.15;;;12.75;;
30948;SDS011;17637;51.984;21.208;2023-07-29T06:15:53;15.50;;;13.90;;
30948;SDS011;17637;51.984;21.208;2023-07-29T06:18:25;14.50;;;13.20;;
30948;SDS011;17637;51.984;21.208;2023-07-29T06:20:57;12.38;;;11.27;;
30948;SDS011;17637;51.984;21.208;2023-07-29T06:23:29;14.68;;;13.38;;
30948;SDS011;17637;51.984;21.208;2023-07-29T06:26:01;16.45;;;15.05;;
30948;SDS011;17637;51.984;21.208;2023-07-29T06:28:33;11.77;;;10.68;;
30948;SDS011;17637;51.984;21.208;2023-07-29T06:31:05;13.30;;;12.10;;
30948;SDS011;17637;51.984;21.208;2023-07-29T06:33:37;13.40;;;12.20;;
30948;SDS011;17637;51.984;21.208;2023-07-29T06:36:08;10.75;;;9.88;;
30948;SDS011;17637;51.984;21.208;2023-07-29T06:38:40;12.65;;;11.55;;
30948;SDS011;17637;51.984;21.208;2023-07-29T06:41:13;11.35;;;10.35;;
30948;SDS011;17637;51.984;21.208;2023-07-29T06:43:47;11.32;;;10.43;;
30948;SDS011;17637;51.984;21.208;2023-07-29T06:46:19;12.18;;;11.00;;
30948;SDS011;17637;51.984;21.208;2023-07-29T06:48:51;12.50;;;11.30;;
30948;SDS011;17637;51.984;21.208;2023-07-29T06:51:23;10.35;;;9.25;;
30948;SDS011;17637;51.984;21.208;2023-07-29T06:53:55;10.38;;;9.38;;
30948;SDS011;17637;51.984;21.208;2023-07-29T06:56:26;8.30;;;7.65;;
30948;SDS011;17637;51.984;21.208;2023-07-29T06:58:58;8.02;;;7.30;;
30948;SDS011;17637;51.984;21.208;2023-07-29T07:01:30;9.68;;;8.77;;
30948;SDS011;17637;51.984;21.208;2023-07-29T07:04:02;8.65;;;7.95;;
30948;SDS011;17637;51.984;21.208;2023-07-29T07:06:34;11.95;;;10.85;;
30948;SDS011;17637;51.984;21.208;2023-07-29T07:09:07;9.40;;;8.48;;
30948;SDS011;17637;51.984;21.208;2023-07-29T07:11:39;9.63;;;8.30;;
30948;SDS011;17637;51.984;21.208;2023-07-29T07:14:10;8.95;;;8.20;;
30948;SDS011;17637;51.984;21.208;2023-07-29T07:16:42;10.90;;;9.80;;
30948;SDS011;17637;51.984;21.208;2023-07-29T07:19:14;10.90;;;9.82;;
30948;SDS011;17637;51.984;21.208;2023-07-29T07:21:46;9.32;;;8.45;;
30948;SDS011;17637;51.984;21.208;2023-07-29T07:24:18;8.27;;;7.53;;
30948;SDS011;17637;51.984;21.208;2023-07-29T07:26:50;7.32;;;6.50;;
30948;SDS011;17637;51.984;21.208;2023-07-29T07:29:22;5.80;;;5.30;;
30948;SDS011;17637;51.984;21.208;2023-07-29T07:31:54;5.97;;;5.47;;
30948;SDS011;17637;51.984;21.208;2023-07-29T07:34:26;6.45;;;5.90;;
30948;SDS011;17637;51.984;21.208;2023-07-29T07:36:58;8.45;;;5.53;;
30948;SDS011;17637;51.984;21.208;2023-07-29T07:39:31;5.00;;;4.60;;
30948;SDS011;17637;51.984;21.208;2023-07-29T07:42:03;5.78;;;5.22;;
30948;SDS011;17637;51.984;21.208;2023-07-29T07:44:35;5.00;;;4.40;;
30948;SDS011;17637;51.984;21.208;2023-07-29T07:47:07;6.82;;;6.00;;
30948;SDS011;17637;51.984;21.208;2023-07-29T07:49:39;6.97;;;6.20;;
30948;SDS011;17637;51.984;21.208;2023-07-29T07:52:11;6.32;;;5.72;;
30948;SDS011;17637;51.984;21.208;2023-07-29T07:54:43;7.13;;;6.43;;
30948;SDS011;17637;51.984;21.208;2023-07-29T07:57:15;6.57;;;5.97;;
30948;SDS011;17637;51.984;21.208;2023-07-29T07:59:47;7.10;;;6.50;;
30948;SDS011;17637;51.984;21.208;2023-07-29T08:02:19;6.65;;;6.05;;
30948;SDS011;17637;51.984;21.208;2023-07-29T08:04:52;5.80;;;5.20;;
30948;SDS011;17637;51.984;21.208;2023-07-29T08:07:23;6.18;;;5.68;;
30948;SDS011;17637;51.984;21.208;2023-07-29T08:09:55;5.95;;;5.30;;
30948;SDS011;17637;51.984;21.208;2023-07-29T08:12:27;10.38;;;6.53;;
30948;SDS011;17637;51.984;21.208;2023-07-29T08:14:59;6.43;;;5.07;;
30948;SDS011;17637;51.984;21.208;2023-07-29T08:17:31;5.63;;;5.03;;
30948;SDS011;17637;51.984;21.208;2023-07-29T08:20:03;5.20;;;4.70;;
30948;SDS011;17637;51.984;21.208;2023-07-29T08:22:35;5.22;;;4.75;;
30948;SDS011;17637;51.984;21.208;2023-07-29T08:25:06;5.47;;;4.88;;
30948;SDS011;17637;51.984;21.208;2023-07-29T08:27:39;5.13;;;4.72;;
30948;SDS011;17637;51.984;21.208;2023-07-29T08:30:10;4.55;;;4.15;;
30948;SDS011;17637;51.984;21.208;2023-07-29T08:32:42;3.83;;;3.47;;
30948;SDS011;17637;51.984;21.208;2023-07-29T08:35:16;3.88;;;3.58;;
30948;SDS011;17637;51.984;21.208;2023-07-29T08:37:48;3.88;;;3.45;;
30948;SDS011;17637;51.984;21.208;2023-07-29T08:40:23;3.65;;;3.35;;
30948;SDS011;17637;51.984;21.208;2023-07-29T08:42:58;4.22;;;3.83;;
30948;SDS011;17637;51.984;21.208;2023-07-29T08:45:36;3.92;;;3.63;;
30948;SDS011;17637;51.984;21.208;2023-07-29T08:48:08;3.95;;;3.10;;
30948;SDS011;17637;51.984;21.208;2023-07-29T08:50:42;2.90;;;2.70;;
30948;SDS011;17637;51.984;21.208;2023-07-29T08:53:15;3.03;;;2.83;;
30948;SDS011;17637;51.984;21.208;2023-07-29T08:55:48;3.40;;;3.10;;
30948;SDS011;17637;51.984;21.208;2023-07-29T08:58:21;3.03;;;2.83;;
30948;SDS011;17637;51.984;21.208;2023-07-29T09:00:54;3.00;;;2.80;;
30948;SDS011;17637;51.984;21.208;2023-07-29T09:03:26;3.75;;;3.10;;
30948;SDS011;17637;51.984;21.208;2023-07-29T09:05:58;4.32;;;3.47;;
30948;SDS011;17637;51.984;21.208;2023-07-29T09:08:31;5.75;;;3.00;;
30948;SDS011;17637;51.984;21.208;2023-07-29T09:11:03;3.10;;;2.90;;
30948;SDS011;17637;51.984;21.208;2023-07-29T09:13:37;3.22;;;2.83;;
30948;SDS011;17637;51.984;21.208;2023-07-29T09:16:09;4.82;;;3.35;;
30948;SDS011;17637;51.984;21.208;2023-07-29T09:18:41;3.95;;;3.17;;
30948;SDS011;17637;51.984;21.208;2023-07-29T09:21:13;2.88;;;2.65;;
30948;SDS011;17637;51.984;21.208;2023-07-29T09:23:47;3.88;;;3.10;;
30948;SDS011;17637;51.984;21.208;2023-07-29T09:26:22;3.05;;;2.75;;
30948;SDS011;17637;51.984;21.208;2023-07-29T09:28:56;4.13;;;2.58;;
30948;SDS011;17637;51.984;21.208;2023-07-29T09:31:29;2.70;;;2.50;;
30948;SDS011;17637;51.984;21.208;2023-07-29T09:34:02;3.17;;;2.90;;
30948;SDS011;17637;51.984;21.208;2023-07-29T09:36:37;4.28;;;3.03;;
30948;SDS011;17637;51.984;21.208;2023-07-29T09:39:12;4.03;;;2.88;;
30948;SDS011;17637;51.984;21.208;2023-07-29T09:41:47;5.53;;;4.30;;
30948;SDS011;17637;51.984;21.208;2023-07-29T09:44:20;4.60;;;3.17;;
30948;SDS011;17637;51.984;21.208;2023-07-29T09:46:52;3.70;;;3.22;;
30948;SDS011;17637;51.984;21.208;2023-07-29T09:49:25;4.68;;;4.20;;
30948;SDS011;17637;51.984;21.208;2023-07-29T09:51:57;5.03;;;3.13;;
30948;SDS011;17637;51.984;21.208;2023-07-29T09:54:30;4.63;;;3.67;;
30948;SDS011;17637;51.984;21.208;2023-07-29T09:57:02;3.42;;;3.08;;
30948;SDS011;17637;51.984;21.208;2023-07-29T09:59:34;3.50;;;2.90;;
30948;SDS011;17637;51.984;21.208;2023-07-29T10:02:09;6.72;;;4.82;;
30948;SDS011;17637;51.984;21.208;2023-07-29T10:04:48;8.13;;;4.28;;
30948;SDS011;17637;51.984;21.208;2023-07-29T10:07:21;7.22;;;5.15;;
30948;SDS011;17637;51.984;21.208;2023-07-29T10:09:53;4.05;;;3.25;;
30948;SDS011;17637;51.984;21.208;2023-07-29T10:12:27;3.40;;;2.85;;
30948;SDS011;17637;51.984;21.208;2023-07-29T10:15:02;3.72;;;3.42;;
30948;SDS011;17637;51.984;21.208;2023-07-29T10:17:37;4.32;;;3.20;;
30948;SDS011;17637;51.984;21.208;2023-07-29T10:20:10;4.20;;;3.50;;
30948;SDS011;17637;51.984;21.208;2023-07-29T10:22:43;3.00;;;2.80;;
30948;SDS011;17637;51.984;21.208;2023-07-29T10:25:18;3.83;;;3.42;;
30948;SDS011;17637;51.984;21.208;2023-07-29T10:27:55;5.35;;;2.92;;
30948;SDS011;17637;51.984;21.208;2023-07-29T10:30:28;3.20;;;2.90;;
30948;SDS011;17637;51.984;21.208;2023-07-29T10:33:04;3.22;;;2.92;;
30948;SDS011;17637;51.984;21.208;2023-07-29T10:35:38;3.03;;;2.72;;
30948;SDS011;17637;51.984;21.208;2023-07-29T10:38:11;3.42;;;3.10;;
30948;SDS011;17637;51.984;21.208;2023-07-29T10:40:47;5.13;;;3.17;;
30948;SDS011;17637;51.984;21.208;2023-07-29T10:43:32;4.93;;;3.70;;
30948;SDS011;17637;51.984;21.208;2023-07-29T10:46:15;3.55;;;3.00;;
30948;SDS011;17637;51.984;21.208;2023-07-29T10:48:52;3.05;;;2.85;;
30948;SDS011;17637;51.984;21.208;2023-07-29T10:51:29;3.55;;;3.15;;
30948;SDS011;17637;51.984;21.208;2023-07-29T10:54:11;4.10;;;3.22;;
30948;SDS011;17637;51.984;21.208;2023-07-29T10:56:48;2.90;;;2.70;;
30948;SDS011;17637;51.984;21.208;2023-07-29T11:01:59;3.28;;;2.97;;
30948;SDS011;17637;51.984;21.208;2023-07-29T11:04:31;3.45;;;3.15;;
30948;SDS011;17637;51.984;21.208;2023-07-29T11:15:26;3.00;;;2.80;;
30948;SDS011;17637;51.984;21.208;2023-07-29T11:18:00;3.17;;;2.75;;
30948;SDS011;17637;51.984;21.208;2023-07-29T11:20:33;3.13;;;2.90;;
30948;SDS011;17637;51.984;21.208;2023-07-29T11:23:05;4.00;;;2.90;;
30948;SDS011;17637;51.984;21.208;2023-07-29T11:25:37;3.30;;;3.00;;
30948;SDS011;17637;51.984;21.208;2023-07-29T11:28:09;3.08;;;2.83;;
30948;SDS011;17637;51.984;21.208;2023-07-29T11:30:41;3.13;;;2.78;;
30948;SDS011;17637;51.984;21.208;2023-07-29T11:33:13;3.20;;;2.90;;
30948;SDS011;17637;51.984;21.208;2023-07-29T11:35:45;3.83;;;2.80;;
30948;SDS011;17637;51.984;21.208;2023-07-29T11:38:19;2.83;;;2.63;;
30948;SDS011;17637;51.984;21.208;2023-07-29T11:40:55;3.00;;;2.80;;
30948;SDS011;17637;51.984;21.208;2023-07-29T11:43:27;3.13;;;2.92;;
30948;SDS011;17637;51.984;21.208;2023-07-29T11:46:00;5.45;;;3.00;;
30948;SDS011;17637;51.984;21.208;2023-07-29T11:48:32;3.22;;;2.90;;
30948;SDS011;17637;51.984;21.208;2023-07-29T11:51:05;4.53;;;2.90;;
30948;SDS011;17637;51.984;21.208;2023-07-29T11:53:38;3.85;;;2.10;;
30948;SDS011;17637;51.984;21.208;2023-07-29T11:56:10;3.75;;;2.15;;
30948;SDS011;17637;51.984;21.208;2023-07-29T11:58:44;2.85;;;1.90;;
30948;SDS011;17637;51.984;21.208;2023-07-29T12:01:16;2.22;;;2.03;;
30948;SDS011;17637;51.984;21.208;2023-07-29T12:03:49;2.25;;;2.05;;
30948;SDS011;17637;51.984;21.208;2023-07-29T12:06:22;3.75;;;1.80;;
30948;SDS011;17637;51.984;21.208;2023-07-29T12:08:55;5.05;;;2.42;;
30948;SDS011;17637;51.984;21.208;2023-07-29T12:11:27;3.13;;;2.83;;
30948;SDS011;17637;51.984;21.208;2023-07-29T12:14:00;3.08;;;2.63;;
30948;SDS011;17637;51.984;21.208;2023-07-29T12:16:32;3.22;;;2.17;;
30948;SDS011;17637;51.984;21.208;2023-07-29T12:19:12;2.03;;;1.83;;
30948;SDS011;17637;51.984;21.208;2023-07-29T12:21:45;1.92;;;1.55;;
30948;SDS011;17637;51.984;21.208;2023-07-29T12:24:16;2.88;;;1.90;;
30948;SDS011;17637;51.984;21.208;2023-07-29T12:26:48;3.13;;;1.92;;
30948;SDS011;17637;51.984;21.208;2023-07-29T12:29:20;2.00;;;1.90;;
30948;SDS011;17637;51.984;21.208;2023-07-29T12:31:59;2.42;;;1.85;;
30948;SDS011;17637;51.984;21.208;2023-07-29T12:34:32;2.17;;;1.80;;
30948;SDS011;17637;51.984;21.208;2023-07-29T12:37:04;1.95;;;1.70;;
30948;SDS011;17637;51.984;21.208;2023-07-29T12:39:40;1.85;;;1.60;;
30948;SDS011;17637;51.984;21.208;2023-07-29T12:42:15;2.88;;;1.70;;
30948;SDS011;17637;51.984;21.208;2023-07-29T12:44:47;2.85;;;1.73;;
30948;SDS011;17637;51.984;21.208;2023-07-29T12:47:19;1.90;;;1.58;;
30948;SDS011;17637;51.984;21.208;2023-07-29T12:49:51;1.88;;;1.77;;
30948;SDS011;17637;51.984;21.208;2023-07-29T12:52:23;2.20;;;1.90;;
30948;SDS011;17637;51.984;21.208;2023-07-29T12:54:54;2.53;;;1.90;;
30948;SDS011;17637;51.984;21.208;2023-07-29T12:57:26;1.85;;;1.73;;
30948;SDS011;17637;51.984;21.208;2023-07-29T12:59:58;2.05;;;1.73;;
30948;SDS011;17637;51.984;21.208;2023-07-29T13:02:31;2.00;;;1.80;;
30948;SDS011;17637;51.984;21.208;2023-07-29T13:05:03;1.77;;;1.67;;
30948;SDS011;17637;51.984;21.208;2023-07-29T13:07:36;1.98;;;1.70;;
30948;SDS011;17637;51.984;21.208;2023-07-29T13:10:08;2.83;;;1.77;;
30948;SDS011;17637;51.984;21.208;2023-07-29T13:12:41;2.58;;;1.90;;
30948;SDS011;17637;51.984;21.208;2023-07-29T13:15:13;1.50;;;1.40;;
30948;SDS011;17637;51.984;21.208;2023-07-29T13:17:45;2.20;;;1.88;;
30948;SDS011;17637;51.984;21.208;2023-07-29T13:20:17;1.63;;;1.52;;
30948;SDS011;17637;51.984;21.208;2023-07-29T13:22:48;1.48;;;1.38;;
30948;SDS011;17637;51.984;21.208;2023-07-29T13:25:20;2.83;;;1.75;;
30948;SDS011;17637;51.984;21.208;2023-07-29T13:27:52;2.47;;;2.00;;
30948;SDS011;17637;51.984;21.208;2023-07-29T13:30:24;3.67;;;1.70;;
30948;SDS011;17637;51.984;21.208;2023-07-29T13:32:56;2.03;;;1.45;;
30948;SDS011;17637;51.984;21.208;2023-07-29T13:35:29;3.08;;;1.83;;
30948;SDS011;17637;51.984;21.208;2023-07-29T13:38:02;2.42;;;1.83;;
30948;SDS011;17637;51.984;21.208;2023-07-29T13:40:34;7.13;;;2.00;;
30948;SDS011;17637;51.984;21.208;2023-07-29T13:43:08;3.95;;;1.73;;
30948;SDS011;17637;51.984;21.208;2023-07-29T13:45:40;1.63;;;1.52;;
30948;SDS011;17637;51.984;21.208;2023-07-29T13:48:12;1.40;;;1.30;;
30948;SDS011;17637;51.984;21.208;2023-07-29T13:50:44;1.67;;;1.58;;
30948;SDS011;17637;51.984;21.208;2023-07-29T13:53:16;2.17;;;1.80;;
30948;SDS011;17637;51.984;21.208;2023-07-29T13:55:48;2.70;;;1.50;;
30948;SDS011;17637;51.984;21.208;2023-07-29T13:58:19;2.13;;;1.48;;
30948;SDS011;17637;51.984;21.208;2023-07-29T14:00:51;1.90;;;1.70;;
30948;SDS011;17637;51.984;21.208;2023-07-29T14:03:23;2.38;;;1.60;;
30948;SDS011;17637;51.984;21.208;2023-07-29T14:05:55;1.95;;;1.73;;
30948;SDS011;17637;51.984;21.208;2023-07-29T14:08:27;2.10;;;1.90;;
30948;SDS011;17637;51.984;21.208;2023-07-29T14:10:58;1.55;;;1.40;;
30948;SDS011;17637;51.984;21.208;2023-07-29T14:13:30;1.80;;;1.52;;
30948;SDS011;17637;51.984;21.208;2023-07-29T14:16:02;1.77;;;1.67;;
30948;SDS011;17637;51.984;21.208;2023-07-29T14:18:34;3.42;;;1.80;;
30948;SDS011;17637;51.984;21.208;2023-07-29T14:21:06;3.13;;;1.90;;
30948;SDS011;17637;51.984;21.208;2023-07-29T14:23:38;1.98;;;1.83;;
30948;SDS011;17637;51.984;21.208;2023-07-29T14:26:10;6.18;;;2.22;;
30948;SDS011;17637;51.984;21.208;2023-07-29T14:28:42;2.70;;;2.00;;
30948;SDS011;17637;51.984;21.208;2023-07-29T14:31:14;1.42;;;1.33;;
30948;SDS011;17637;51.984;21.208;2023-07-29T14:33:48;1.83;;;1.73;;
30948;SDS011;17637;51.984;21.208;2023-07-29T14:36:21;2.45;;;1.63;;
30948;SDS011;17637;51.984;21.208;2023-07-29T14:38:52;2.95;;;2.08;;
30948;SDS011;17637;51.984;21.208;2023-07-29T14:41:24;6.38;;;1.90;;
30948;SDS011;17637;51.984;21.208;2023-07-29T14:43:56;3.03;;;1.70;;
30948;SDS011;17637;51.984;21.208;2023-07-29T14:46:28;3.50;;;1.60;;
30948;SDS011;17637;51.984;21.208;2023-07-29T14:49:00;2.05;;;1.83;;
30948;SDS011;17637;51.984;21.208;2023-07-29T14:51:31;2.30;;;1.65;;
30948;SDS011;17637;51.984;21.208;2023-07-29T14:54:03;1.92;;;1.80;;
30948;SDS011;17637;51.984;21.208;2023-07-29T14:56:35;2.55;;;1.98;;
30948;SDS011;17637;51.984;21.208;2023-07-29T14:59:08;2.00;;;1.80;;
30948;SDS011;17637;51.984;21.208;2023-07-29T15:01:39;2.67;;;2.30;;
30948;SDS011;17637;51.984;21.208;2023-07-29T15:04:11;2.13;;;1.90;;
30948;SDS011;17637;51.984;21.208;2023-07-29T15:06:43;2.80;;;2.05;;
30948;SDS011;17637;51.984;21.208;2023-07-29T15:09:15;4.13;;;1.90;;
30948;SDS011;17637;51.984;21.208;2023-07-29T15:11:47;2.42;;;2.22;;
30948;SDS011;17637;51.984;21.208;2023-07-29T15:14:19;4.47;;;2.47;;
30948;SDS011;17637;51.984;21.208;2023-07-29T15:16:51;1.92;;;1.73;;